Terminal Aerodrome Forecast
Issued by NWS

Home | Current Version | Previous Version | Text Only | Print | Product List | Glossary On
Versions: 1 2 3 4 5 6 7 8 9 10 11 12 13 14 15 16 17 18 19 20 21 22 23
000
FTUS44 KMAF 291721
TAFPEQ
TAF
KPEQ 291721Z 2918/3018 05008KT P6SM FEW150
     FM292100 11012G17KT P6SM SCT100
     FM300200 10007KT P6SM FEW100=

USA.gov is the U.S. government's official web portal to all federal, state and local government web resources and services.